Chasetown, United Kingdom
Current Conditions -  °F | °C
As of 5:50 PM on Tuesday 21 Oct 2014 (Local Time) from EGBB Reporting Station
Scattered Clouds Scattered Clouds  
Wind Chill: 42°   Ceiling: Unl
Heat Index: 48°   Visibility: 6mi
Dew Point: 37°   Wind: 18mph
Humidity: 66%   Direction: 290°WNW
Pressure: 29.88"   Gusts: NA
Location:  52.67°N, 1.93°W
Report Text: EGBB 211650Z 29016KT 9999 SCT045 09/03 Q1012
Loading
Personal Weather Stations






























Interactive Weather Map New forecast layout! Learn more

10-Day Weather Forecast

Advertisements
Track Severe Weather on mobile